Uraga Maru — JD2163 — position and weather

sailwx.info

Track history (hours):
 
Tides and Currents Weather Stations Pressure Air Temp Water Temp Dewpoint Dewpoint Depression Visibility Wind Speed Wind Dir Waves Ship Positions

Uraga Maru

Last reported at 2014-Sep-17 02:33 UTC. Time now 2014-Sep-17 03:36 UTC.
Position N 35°24' E 139°43'.

Length 40 m; draft 2.8 m.

Type: Tug. MMSI: 431101119.

Date/timePositionNaut miles runAvg speedWind from/ knotsBaromVisibWave heightAir tempDewpointWater temp
2014-Sep-17 02:33N 35°24' E 139°43'8 7.8
2014-Sep-17 01:33N 35°17' E 139°45'6 5.5
2014-Sep-17 00:33N 35°12' E 139°47'8 7.7
2014-Sep-16 23:33N 35°17' E 139°41'0 0.0
2014-Sep-16 22:33N 35°17' E 139°41'0 0.0
2014-Sep-16 06:31N 35°17' E 139°41'0 0.0
2014-Sep-16 05:33N 35°17' E 139°41'0 0.0
2014-Sep-16 04:33N 35°17' E 139°41'0 0.0
2014-Sep-16 03:30N 35°17' E 139°41'0 0.0
2014-Sep-16 02:33N 35°17' E 139°41'0 0.0
2014-Sep-15 23:18N 35°17' E 139°41'2 2.9
2014-Sep-15 22:33N 35°19' E 139°39'2 2.5
2014-Sep-15 21:33N 35°19' E 139°42'7 7.1
2014-Sep-15 20:34N 35°25' E 139°47'1111.3
2014-Sep-15 19:33N 35°14' E 139°47'3 2.8
2014-Sep-15 18:22N 35°13' E 139°43'4 4.5
2014-Sep-15 17:34N 35°16' E 139°45'1110.9
2014-Sep-15 16:33N 35°27' E 139°45'1 0.8
2014-Sep-15 15:34N 35°28' E 139°45'1 0.9
2014-Sep-15 14:33N 35°29' E 139°46'0 0.0
2014-Sep-15 13:33N 35°29' E 139°46'0 0.0
2014-Sep-15 12:34N 35°29' E 139°46'3 3.3
2014-Sep-15 11:34N 35°26' E 139°45'1111.3
2014-Sep-15 10:33N 35°14' E 139°45'8 8.6
2014-Sep-15 09:33N 35°22' E 139°42'4 3.6
2014-Sep-15 08:33N 35°26' E 139°42'9 8.6
2014-Sep-15 07:33N 35°17' E 139°41'2 1.9
2014-Sep-15 06:33N 35°19' E 139°42'2 1.9
2014-Sep-15 05:32N 35°17' E 139°41'0 0.0
2014-Sep-15 03:18N 35°17' E 139°41'0 0.0
2014-Sep-15 02:30N 35°17' E 139°41'0 0.0
2014-Sep-14 18:33N 35°17' E 139°41'0 0.0
2014-Sep-14 17:33N 35°17' E 139°41'0 0.0
2014-Sep-14 16:33N 35°17' E 139°41'0 0.0
2014-Sep-14 15:33N 35°17' E 139°41'0 0.0
2014-Sep-14 14:33N 35°17' E 139°41'0 0.0
2014-Sep-14 13:33N 35°17' E 139°41'0 0.0
2014-Sep-14 12:32N 35°17' E 139°41'0 0.0
2014-Sep-14 07:13N 35°17' E 139°41'0 0.0
2014-Sep-14 05:22N 35°17' E 139°41'0 0.0
2014-Sep-14 02:16N 35°17' E 139°41'6 1.2
2014-Sep-13 21:34N 35°22' E 139°43'4 4.1
2014-Sep-13 20:33N 35°18' E 139°44'6 5.6
2014-Sep-13 19:29N 35°12' E 139°46'6 2.2
2014-Sep-13 16:33N 35°17' E 139°41'0 0.0
2014-Sep-13 15:28N 35°17' E 139°41'3 3.4
2014-Sep-13 14:33N 35°20' E 139°42'2 1.9
2014-Sep-13 13:33N 35°20' E 139°44'9 9.1
2014-Sep-13 12:33N 35°11' E 139°47'4 1.9
2014-Sep-13 10:31N 35°13' E 139°43'0 0.0
2014-Sep-13 06:07N 35°13' E 139°43'5 8.0
2014-Sep-13 05:27N 35°19' E 139°41'2 1.9
2014-Sep-13 04:32N 35°18' E 139°39'3 3.0
2014-Sep-13 03:33N 35°20' E 139°41'2 2.4
2014-Sep-13 02:33N 35°19' E 139°44'10 9.7
2014-Sep-13 01:32N 35°10' E 139°47'9 9.2
2014-Sep-13 00:33N 35°17' E 139°41'0 0.0
2014-Sep-12 23:33N 35°17' E 139°41'0 0.0
2014-Sep-12 22:31N 35°17' E 139°41'0 0.0
2014-Sep-12 21:32N 35°17' E 139°41'0 0.0
2014-Sep-12 20:33N 35°17' E 139°41'0 0.0
2014-Sep-12 19:33N 35°17' E 139°41'0 0.0
2014-Sep-12 18:20N 35°17' E 139°41'0 0.0
2014-Sep-12 16:33N 35°17' E 139°41'0 0.0
2014-Sep-12 15:33N 35°17' E 139°41'0 0.0
2014-Sep-12 14:33N 35°17' E 139°41'0 0.0
2014-Sep-12 13:33N 35°17' E 139°41'0 0.0
2014-Sep-12 12:33N 35°17' E 139°41'0 0.0
2014-Sep-12 11:33N 35°17' E 139°41'0 0.0
2014-Sep-12 10:33N 35°17' E 139°41'0 0.0
2014-Sep-12 08:09N 35°17' E 139°41'0 0.0
2014-Sep-12 07:20N 35°17' E 139°41'0 0.0
2014-Sep-12 05:22N 35°17' E 139°41'0 0.0
2014-Sep-12 04:30N 35°17' E 139°41'0 0.0
2014-Sep-12 03:33N 35°17' E 139°41'0 0.0
2014-Sep-12 02:33N 35°17' E 139°41'0 0.0
2014-Sep-12 01:31N 35°17' E 139°41'0 0.0
2014-Sep-12 00:22N 35°17' E 139°41'0 0.0
2014-Sep-11 23:33N 35°17' E 139°41'1 1.0
2014-Sep-11 22:33N 35°17' E 139°39'1 1.2
2014-Sep-11 21:32N 35°18' E 139°40'4 4.2
2014-Sep-11 20:33N 35°20' E 139°44'10 9.4
2014-Sep-11 19:32N 35°10' E 139°47'14 2.3
2014-Sep-11 13:32N 35°24' E 139°45'9 9.4
2014-Sep-11 12:33N 35°15' E 139°47'3 3.0
2014-Sep-11 11:29N 35°13' E 139°44'0 0.1
2014-Sep-11 06:31N 35°13' E 139°43'4 4.5
2014-Sep-11 05:33N 35°17' E 139°45'10 9.7
2014-Sep-11 04:34N 35°27' E 139°47'9 9.0
2014-Sep-11 03:34N 35°29' E 139°58'0 0.2
2014-Sep-11 02:34N 35°29' E 139°58'9 8.7
2014-Sep-11 01:31N 35°24' E 139°48'9 1.2
2014-Sep-10 17:32N 35°17' E 139°41'0 0.0
2014-Sep-10 16:34N 35°17' E 139°41'0 0.0
2014-Sep-10 15:33N 35°17' E 139°41'0 0.0
2014-Sep-10 14:34N 35°17' E 139°41'0 0.0
2014-Sep-10 13:33N 35°17' E 139°41'0 0.0
2014-Sep-10 12:34N 35°17' E 139°41'0 0.0
2014-Sep-10 11:33N 35°17' E 139°41'0 0.0
2014-Sep-10 10:34N 35°17' E 139°41'0 0.0
2014-Sep-10 09:33N 35°17' E 139°41'0 0.0
2014-Sep-10 08:33N 35°17' E 139°41'0 0.0
2014-Sep-10 07:33N 35°17' E 139°41'0 0.0
2014-Sep-10 06:33N 35°17' E 139°41'5 5.2
2014-Sep-10 05:33N 35°22' E 139°42'4 4.0
2014-Sep-10 04:34N 35°19' E 139°44'9 8.9
2014-Sep-10 03:33N 35°10' E 139°47'2 2.3
2014-Sep-10 02:34N 35°12' E 139°46'1010.3
2014-Sep-10 01:34N 35°22' E 139°42'3 3.1
2014-Sep-10 00:34N 35°24' E 139°39'3 3.1
2014-Sep-09 23:34N 35°21' E 139°41'4 4.2
2014-Sep-09 22:32N 35°17' E 139°41'0 0.1
2014-Sep-09 21:33N 35°17' E 139°41'0 0.0
2014-Sep-09 20:33N 35°17' E 139°41'0 0.0
2014-Sep-09 19:32N 35°17' E 139°41'0 0.0
2014-Sep-09 18:31N 35°17' E 139°41'0 0.0
2014-Sep-09 16:18N 35°17' E 139°41'0 0.0
2014-Sep-09 15:05N 35°17' E 139°41'0 0.1
2014-Sep-09 14:33N 35°17' E 139°41'0 0.0
2014-Sep-09 10:25N 35°17' E 139°41'0 0.1
2014-Sep-09 09:27N 35°17' E 139°41'0 0.1
2014-Sep-09 08:30N 35°17' E 139°41'0 0.1
2014-Sep-09 07:33N 35°17' E 139°41'0 0.2
2014-Sep-09 06:33N 35°17' E 139°41'4 3.7
2014-Sep-09 05:33N 35°16' E 139°45'3 3.0
2014-Sep-09 04:32N 35°13' E 139°43'5 4.9
2014-Sep-09 03:33N 35°18' E 139°44'1010.4
2014-Sep-09 02:34N 35°28' E 139°48'8 7.6
2014-Sep-09 01:33N 35°29' E 139°58'3 2.7
2014-Sep-09 00:33N 35°28' E 139°54'1111.0
2014-Sep-08 23:34N 35°22' E 139°43'5 4.5
2014-Sep-08 22:33N 35°19' E 139°39'2 2.3
2014-Sep-08 21:33N 35°18' E 139°42'1 1.5
2014-Sep-08 20:33N 35°17' E 139°41'0 0.0
2014-Sep-08 19:33N 35°17' E 139°41'0 0.0
2014-Sep-08 18:33N 35°17' E 139°41'0 0.0
2014-Sep-08 17:33N 35°17' E 139°41'0 0.0
2014-Sep-08 16:33N 35°17' E 139°41'0 0.0
2014-Sep-08 15:33N 35°17' E 139°41'0 0.0
2014-Sep-08 14:33N 35°17' E 139°41'0 0.0
2014-Sep-08 13:27N 35°17' E 139°41'0 0.0
2014-Sep-08 12:27N 35°17' E 139°41'0 0.1
2014-Sep-08 11:31N 35°17' E 139°41'0 0.1
2014-Sep-08 10:32N 35°17' E 139°41'0 0.0
2014-Sep-08 09:32N 35°17' E 139°41'0 0.0
2014-Sep-08 08:32N 35°17' E 139°41'0 0.0
2014-Sep-08 07:34N 35°17' E 139°41'0 0.0
2014-Sep-08 06:33N 35°17' E 139°41'0 0.0
2014-Sep-08 05:33N 35°17' E 139°41'0 0.0
2014-Sep-08 04:33N 35°17' E 139°41'0 0.0
2014-Sep-08 03:34N 35°17' E 139°41'6 6.3
2014-Sep-08 02:33N 35°13' E 139°46'1211.5
2014-Sep-08 01:32N 35°24' E 139°43'4 4.4
2014-Sep-08 00:33N 35°28' E 139°44'0 0.2
2014-Sep-07 23:33N 35°28' E 139°44'0 0.2
2014-Sep-07 22:34N 35°28' E 139°44'0 0.2
2014-Sep-07 21:33N 35°28' E 139°44'0 0.3
2014-Sep-07 20:33N 35°28' E 139°44'0 0.4
2014-Sep-07 19:33N 35°28' E 139°44'0 0.0
2014-Sep-07 18:33N 35°28' E 139°44'0 0.0
2014-Sep-07 17:34N 35°28' E 139°44'0 0.0
2014-Sep-07 16:33N 35°28' E 139°44'0 0.0
2014-Sep-07 15:34N 35°28' E 139°44'0 0.0
2014-Sep-07 14:33N 35°28' E 139°44'0 0.0
2014-Sep-07 13:34N 35°28' E 139°44'0 0.1
2014-Sep-07 12:33N 35°28' E 139°44'0 0.0
2014-Sep-07 11:33N 35°28' E 139°44'0 0.2
2014-Sep-07 10:33N 35°28' E 139°44'0 0.2
2014-Sep-07 09:33N 35°28' E 139°44'0 0.1
2014-Sep-07 08:33N 35°28' E 139°44'0 0.2
2014-Sep-07 07:33N 35°28' E 139°44'0 0.0
2014-Sep-07 06:33N 35°28' E 139°44'0 0.1
2014-Sep-07 05:33N 35°28' E 139°44'0 0.1
2014-Sep-07 04:33N 35°28' E 139°44'0 0.0
2014-Sep-07 03:33N 35°28' E 139°44'0 0.0
2014-Sep-07 02:33N 35°28' E 139°44'  
Track history (hours):
 
Tides and Currents Weather Stations Pressure Air Temp Water Temp Dewpoint Dewpoint Depression Visibility Wind Speed Wind Dir Waves Ship Positions

Uraga Maru

Last reported at 2014-Sep-17 02:33 UTC. Time now 2014-Sep-17 03:36 UTC.
Position N 35°24' E 139°43'.

Length 40 m; draft 2.8 m.

Type: Tug. MMSI: 431101119.

Date/timePositionNaut miles runAvg speedWind from/ knotsBaromVisibWave heightAir tempDewpointWater temp
2014-Sep-17 02:33N 35°24' E 139°43'8 7.8
2014-Sep-17 01:33N 35°17' E 139°45'6 5.5
2014-Sep-17 00:33N 35°12' E 139°47'8 7.7
2014-Sep-16 23:33N 35°17' E 139°41'0 0.0
2014-Sep-16 22:33N 35°17' E 139°41'0 0.0
2014-Sep-16 06:31N 35°17' E 139°41'0 0.0
2014-Sep-16 05:33N 35°17' E 139°41'0 0.0
2014-Sep-16 04:33N 35°17' E 139°41'0 0.0
2014-Sep-16 03:30N 35°17' E 139°41'0 0.0
2014-Sep-16 02:33N 35°17' E 139°41'0 0.0
2014-Sep-15 23:18N 35°17' E 139°41'2 2.9
2014-Sep-15 22:33N 35°19' E 139°39'2 2.5
2014-Sep-15 21:33N 35°19' E 139°42'7 7.1
2014-Sep-15 20:34N 35°25' E 139°47'1111.3
2014-Sep-15 19:33N 35°14' E 139°47'3 2.8
2014-Sep-15 18:22N 35°13' E 139°43'4 4.5
2014-Sep-15 17:34N 35°16' E 139°45'1110.9
2014-Sep-15 16:33N 35°27' E 139°45'1 0.8
2014-Sep-15 15:34N 35°28' E 139°45'1 0.9
2014-Sep-15 14:33N 35°29' E 139°46'0 0.0
2014-Sep-15 13:33N 35°29' E 139°46'0 0.0
2014-Sep-15 12:34N 35°29' E 139°46'3 3.3
2014-Sep-15 11:34N 35°26' E 139°45'1111.3
2014-Sep-15 10:33N 35°14' E 139°45'8 8.6
2014-Sep-15 09:33N 35°22' E 139°42'4 3.6
2014-Sep-15 08:33N 35°26' E 139°42'9 8.6
2014-Sep-15 07:33N 35°17' E 139°41'2 1.9
2014-Sep-15 06:33N 35°19' E 139°42'2 1.9
2014-Sep-15 05:32N 35°17' E 139°41'0 0.0
2014-Sep-15 03:18N 35°17' E 139°41'0 0.0
2014-Sep-15 02:30N 35°17' E 139°41'0 0.0
2014-Sep-14 18:33N 35°17' E 139°41'0 0.0
2014-Sep-14 17:33N 35°17' E 139°41'0 0.0
2014-Sep-14 16:33N 35°17' E 139°41'0 0.0
2014-Sep-14 15:33N 35°17' E 139°41'0 0.0
2014-Sep-14 14:33N 35°17' E 139°41'0 0.0
2014-Sep-14 13:33N 35°17' E 139°41'0 0.0
2014-Sep-14 12:32N 35°17' E 139°41'0 0.0
2014-Sep-14 07:13N 35°17' E 139°41'0 0.0
2014-Sep-14 05:22N 35°17' E 139°41'0 0.0
2014-Sep-14 02:16N 35°17' E 139°41'6 1.2
2014-Sep-13 21:34N 35°22' E 139°43'4 4.1
2014-Sep-13 20:33N 35°18' E 139°44'6 5.6
2014-Sep-13 19:29N 35°12' E 139°46'6 2.2
2014-Sep-13 16:33N 35°17' E 139°41'0 0.0
2014-Sep-13 15:28N 35°17' E 139°41'3 3.4
2014-Sep-13 14:33N 35°20' E 139°42'2 1.9
2014-Sep-13 13:33N 35°20' E 139°44'9 9.1
2014-Sep-13 12:33N 35°11' E 139°47'4 1.9
2014-Sep-13 10:31N 35°13' E 139°43'0 0.0
2014-Sep-13 06:07N 35°13' E 139°43'5 8.0
2014-Sep-13 05:27N 35°19' E 139°41'2 1.9
2014-Sep-13 04:32N 35°18' E 139°39'3 3.0
2014-Sep-13 03:33N 35°20' E 139°41'2 2.4
2014-Sep-13 02:33N 35°19' E 139°44'10 9.7
2014-Sep-13 01:32N 35°10' E 139°47'9 9.2
2014-Sep-13 00:33N 35°17' E 139°41'0 0.0
2014-Sep-12 23:33N 35°17' E 139°41'0 0.0
2014-Sep-12 22:31N 35°17' E 139°41'0 0.0
2014-Sep-12 21:32N 35°17' E 139°41'0 0.0
2014-Sep-12 20:33N 35°17' E 139°41'0 0.0
2014-Sep-12 19:33N 35°17' E 139°41'0 0.0
2014-Sep-12 18:20N 35°17' E 139°41'0 0.0
2014-Sep-12 16:33N 35°17' E 139°41'0 0.0
2014-Sep-12 15:33N 35°17' E 139°41'0 0.0
2014-Sep-12 14:33N 35°17' E 139°41'0 0.0
2014-Sep-12 13:33N 35°17' E 139°41'0 0.0
2014-Sep-12 12:33N 35°17' E 139°41'0 0.0
2014-Sep-12 11:33N 35°17' E 139°41'0 0.0
2014-Sep-12 10:33N 35°17' E 139°41'0 0.0
2014-Sep-12 08:09N 35°17' E 139°41'0 0.0
2014-Sep-12 07:20N 35°17' E 139°41'0 0.0
2014-Sep-12 05:22N 35°17' E 139°41'0 0.0
2014-Sep-12 04:30N 35°17' E 139°41'0 0.0
2014-Sep-12 03:33N 35°17' E 139°41'0 0.0
2014-Sep-12 02:33N 35°17' E 139°41'0 0.0
2014-Sep-12 01:31N 35°17' E 139°41'0 0.0
2014-Sep-12 00:22N 35°17' E 139°41'0 0.0
2014-Sep-11 23:33N 35°17' E 139°41'1 1.0
2014-Sep-11 22:33N 35°17' E 139°39'1 1.2
2014-Sep-11 21:32N 35°18' E 139°40'4 4.2
2014-Sep-11 20:33N 35°20' E 139°44'10 9.4
2014-Sep-11 19:32N 35°10' E 139°47'14 2.3
2014-Sep-11 13:32N 35°24' E 139°45'9 9.4
2014-Sep-11 12:33N 35°15' E 139°47'3 3.0
2014-Sep-11 11:29N 35°13' E 139°44'0 0.1
2014-Sep-11 06:31N 35°13' E 139°43'4 4.5
2014-Sep-11 05:33N 35°17' E 139°45'10 9.7
2014-Sep-11 04:34N 35°27' E 139°47'9 9.0
2014-Sep-11 03:34N 35°29' E 139°58'0 0.2
2014-Sep-11 02:34N 35°29' E 139°58'9 8.7
2014-Sep-11 01:31N 35°24' E 139°48'9 1.2
2014-Sep-10 17:32N 35°17' E 139°41'0 0.0
2014-Sep-10 16:34N 35°17' E 139°41'0 0.0
2014-Sep-10 15:33N 35°17' E 139°41'0 0.0
2014-Sep-10 14:34N 35°17' E 139°41'0 0.0
2014-Sep-10 13:33N 35°17' E 139°41'0 0.0
2014-Sep-10 12:34N 35°17' E 139°41'0 0.0
2014-Sep-10 11:33N 35°17' E 139°41'0 0.0
2014-Sep-10 10:34N 35°17' E 139°41'0 0.0
2014-Sep-10 09:33N 35°17' E 139°41'0 0.0
2014-Sep-10 08:33N 35°17' E 139°41'0 0.0
2014-Sep-10 07:33N 35°17' E 139°41'0 0.0
2014-Sep-10 06:33N 35°17' E 139°41'5 5.2
2014-Sep-10 05:33N 35°22' E 139°42'4 4.0
2014-Sep-10 04:34N 35°19' E 139°44'9 8.9
2014-Sep-10 03:33N 35°10' E 139°47'2 2.3
2014-Sep-10 02:34N 35°12' E 139°46'1010.3
2014-Sep-10 01:34N 35°22' E 139°42'3 3.1
2014-Sep-10 00:34N 35°24' E 139°39'3 3.1
2014-Sep-09 23:34N 35°21' E 139°41'4 4.2
2014-Sep-09 22:32N 35°17' E 139°41'0 0.1
2014-Sep-09 21:33N 35°17' E 139°41'0 0.0
2014-Sep-09 20:33N 35°17' E 139°41'0 0.0
2014-Sep-09 19:32N 35°17' E 139°41'0 0.0
2014-Sep-09 18:31N 35°17' E 139°41'0 0.0
2014-Sep-09 16:18N 35°17' E 139°41'0 0.0
2014-Sep-09 15:05N 35°17' E 139°41'0 0.1
2014-Sep-09 14:33N 35°17' E 139°41'0 0.0
2014-Sep-09 10:25N 35°17' E 139°41'0 0.1
2014-Sep-09 09:27N 35°17' E 139°41'0 0.1
2014-Sep-09 08:30N 35°17' E 139°41'0 0.1
2014-Sep-09 07:33N 35°17' E 139°41'0 0.2
2014-Sep-09 06:33N 35°17' E 139°41'4 3.7
2014-Sep-09 05:33N 35°16' E 139°45'3 3.0
2014-Sep-09 04:32N 35°13' E 139°43'5 4.9
2014-Sep-09 03:33N 35°18' E 139°44'1010.4
2014-Sep-09 02:34N 35°28' E 139°48'8 7.6
2014-Sep-09 01:33N 35°29' E 139°58'3 2.7
2014-Sep-09 00:33N 35°28' E 139°54'1111.0
2014-Sep-08 23:34N 35°22' E 139°43'5 4.5
2014-Sep-08 22:33N 35°19' E 139°39'2 2.3
2014-Sep-08 21:33N 35°18' E 139°42'1 1.5
2014-Sep-08 20:33N 35°17' E 139°41'0 0.0
2014-Sep-08 19:33N 35°17' E 139°41'0 0.0
2014-Sep-08 18:33N 35°17' E 139°41'0 0.0
2014-Sep-08 17:33N 35°17' E 139°41'0 0.0
2014-Sep-08 16:33N 35°17' E 139°41'0 0.0
2014-Sep-08 15:33N 35°17' E 139°41'0 0.0
2014-Sep-08 14:33N 35°17' E 139°41'0 0.0
2014-Sep-08 13:27N 35°17' E 139°41'0 0.0
2014-Sep-08 12:27N 35°17' E 139°41'0 0.1
2014-Sep-08 11:31N 35°17' E 139°41'0 0.1
2014-Sep-08 10:32N 35°17' E 139°41'0 0.0
2014-Sep-08 09:32N 35°17' E 139°41'0 0.0
2014-Sep-08 08:32N 35°17' E 139°41'0 0.0
2014-Sep-08 07:34N 35°17' E 139°41'0 0.0
2014-Sep-08 06:33N 35°17' E 139°41'0 0.0
2014-Sep-08 05:33N 35°17' E 139°41'0 0.0
2014-Sep-08 04:33N 35°17' E 139°41'0 0.0
2014-Sep-08 03:34N 35°17' E 139°41'6 6.3
2014-Sep-08 02:33N 35°13' E 139°46'1211.5
2014-Sep-08 01:32N 35°24' E 139°43'4 4.4
2014-Sep-08 00:33N 35°28' E 139°44'0 0.2
2014-Sep-07 23:33N 35°28' E 139°44'0 0.2
2014-Sep-07 22:34N 35°28' E 139°44'0 0.2
2014-Sep-07 21:33N 35°28' E 139°44'0 0.3
2014-Sep-07 20:33N 35°28' E 139°44'0 0.4
2014-Sep-07 19:33N 35°28' E 139°44'0 0.0
2014-Sep-07 18:33N 35°28' E 139°44'0 0.0
2014-Sep-07 17:34N 35°28' E 139°44'0 0.0
2014-Sep-07 16:33N 35°28' E 139°44'0 0.0
2014-Sep-07 15:34N 35°28' E 139°44'0 0.0
2014-Sep-07 14:33N 35°28' E 139°44'0 0.0
2014-Sep-07 13:34N 35°28' E 139°44'0 0.1
2014-Sep-07 12:33N 35°28' E 139°44'0 0.0
2014-Sep-07 11:33N 35°28' E 139°44'0 0.2
2014-Sep-07 10:33N 35°28' E 139°44'0 0.2
2014-Sep-07 09:33N 35°28' E 139°44'0 0.1
2014-Sep-07 08:33N 35°28' E 139°44'0 0.2
2014-Sep-07 07:33N 35°28' E 139°44'0 0.0
2014-Sep-07 06:33N 35°28' E 139°44'0 0.1
2014-Sep-07 05:33N 35°28' E 139°44'0 0.1
2014-Sep-07 04:33N 35°28' E 139°44'0 0.0
2014-Sep-07 03:33N 35°28' E 139°44'0 0.0
2014-Sep-07 02:33N 35°28' E 139°44'  

Dump ship's entire track history